Sequoia National Park, California
Current Conditions -  °F | °C
As of 4:15 PM on Sunday 23 Nov 2014 (Local Time) from KVIS Reporting Station
Broken Clouds Broken Clouds  
Wind Chill: 57°   Ceiling: 3400
Heat Index: 57°   Visibility: 10mi
Dew Point: 45°   Wind: 8mph
Humidity: 63%   Direction: 290°WNW
Pressure: 30.28"   Gusts: NA
Location:  36.5932°N, 118.838°W
Report Text: KVIS 240015Z 29007KT 10SM BKN034 14/07 A3028 RMK AO1
Loading
Personal Weather Stations






























Interactive Weather Map New forecast layout! Learn more

10-Day Weather Forecast

Advertisements
Track Severe Weather on mobile